createdAt,value
2019-01-05T00:02:26.706Z,5.30
2019-01-05T00:04:57.153Z,5.40
2019-01-05T00:07:45.676Z,5.30
2019-01-05T00:10:32.174Z,5.40
2019-01-05T00:13:05.546Z,5.40
2019-01-05T00:15:52.064Z,5.30
2019-01-05T00:18:34.325Z,5.40
2019-01-05T00:21:11.792Z,5.30
2019-01-05T00:23:45.465Z,5.30
2019-01-05T00:26:16.138Z,5.40
2019-01-05T00:28:49.584Z,5.40
2019-01-05T00:31:29.161Z,5.40
2019-01-05T00:34:05.168Z,5.40
2019-01-05T00:36:52.019Z,5.40
2019-01-05T00:39:23.359Z,5.40
2019-01-05T00:42:12.161Z,5.40
2019-01-05T00:44:55.084Z,5.40
2019-01-05T00:47:33.973Z,5.50
2019-01-05T00:50:11.241Z,5.50
2019-01-05T00:52:51.268Z,5.60
2019-01-05T00:55:22.392Z,5.60
2019-01-05T00:58:02.498Z,5.60
2019-01-05T01:00:32.876Z,5.60
2019-01-05T01:03:15.018Z,5.60
2019-01-05T01:05:57.008Z,5.60
2019-01-05T01:08:30.392Z,5.60
2019-01-05T01:11:17.556Z,5.70
2019-01-05T01:13:50.829Z,5.70
2019-01-05T01:16:27.205Z,5.70
2019-01-05T01:19:13.604Z,5.70
2019-01-05T01:21:44.152Z,5.70
2019-01-05T01:24:20.608Z,5.70
2019-01-05T01:26:58.129Z,5.70
2019-01-05T01:29:28.803Z,5.70
2019-01-05T01:31:59.247Z,5.70
2019-01-05T01:34:47.999Z,5.70
2019-01-05T01:37:34.559Z,5.70
2019-01-05T01:40:15.621Z,5.80
2019-01-05T01:42:57.725Z,5.70
2019-01-05T01:45:30.769Z,5.80
2019-01-05T01:48:05.715Z,5.80
2019-01-05T01:50:55.249Z,5.80
2019-01-05T01:53:35.358Z,5.80
2019-01-05T01:56:07.564Z,5.90
2019-01-05T01:58:56.084Z,5.90
2019-01-05T02:01:35.186Z,5.90
2019-01-05T02:04:17.805Z,5.90
2019-01-05T02:06:53.913Z,5.90
2019-01-05T02:09:32.811Z,5.90
2019-01-05T02:12:14.149Z,6.00
2019-01-05T02:14:58.078Z,6.00
2019-01-05T02:17:49.321Z,6.00
2019-01-05T02:20:28.786Z,6.00
2019-01-05T02:23:51.597Z,6.00
2019-01-05T02:26:55.368Z,6.00
2019-01-05T02:29:56.700Z,6.00
2019-01-05T02:32:59.569Z,6.00
2019-01-05T02:36:11.901Z,6.00
2019-01-05T02:39:04.401Z,6.10
2019-01-05T02:41:40.339Z,6.00
2019-01-05T02:44:28.213Z,6.00
2019-01-05T02:47:19.337Z,6.10
2019-01-05T02:50:04.696Z,6.10
2019-01-05T02:52:52.901Z,6.10
2019-01-05T02:56:03.097Z,6.10
2019-01-05T02:59:06.157Z,6.10
2019-01-05T03:02:27.208Z,6.20
2019-01-05T03:05:18.252Z,6.20
2019-01-05T03:08:05.556Z,6.20
2019-01-05T03:11:08.168Z,6.20
2019-01-05T03:14:03.809Z,6.20
2019-01-05T03:17:18.797Z,6.20
2019-01-05T03:20:20.110Z,6.20
2019-01-05T03:22:58.658Z,6.30
2019-01-05T03:25:50.029Z,6.30
2019-01-05T03:29:05.025Z,6.30
2019-01-05T03:32:08.091Z,6.30
2019-01-05T03:34:56.235Z,6.30
2019-01-05T03:37:57.711Z,6.40
2019-01-05T03:41:01.290Z,6.40
2019-01-05T03:43:51.319Z,6.40
2019-01-05T03:46:36.277Z,6.40
2019-01-05T03:49:29.076Z,6.40
2019-01-05T03:52:20.466Z,6.40
2019-01-05T03:54:56.441Z,6.40
2019-01-05T03:57:44.369Z,6.40
2019-01-05T04:00:50.804Z,6.40
2019-01-05T04:03:50.870Z,6.50
2019-01-05T04:07:01.769Z,6.50
2019-01-05T04:10:13.894Z,6.50
2019-01-05T04:13:17.132Z,6.60
2019-01-05T04:16:07.686Z,6.60
2019-01-05T04:18:56.018Z,6.60
2019-01-05T04:21:53.238Z,6.60
2019-01-05T04:24:46.288Z,6.60
2019-01-05T04:27:47.593Z,6.60
2019-01-05T04:30:46.203Z,6.70
2019-01-05T04:33:34.309Z,6.70
2019-01-05T04:36:13.498Z,6.70
2019-01-05T04:39:16.237Z,6.70
2019-01-05T04:42:13.458Z,6.70
2019-01-05T04:44:57.848Z,6.70
2019-01-05T04:47:42.808Z,6.70
2019-01-05T04:50:46.018Z,6.70
2019-01-05T04:53:47.400Z,6.80
2019-01-05T04:56:40.355Z,6.80
2019-01-05T04:59:51.405Z,6.80
2019-01-05T05:02:46.462Z,6.80
2019-01-05T05:05:20.035Z,6.80
2019-01-05T05:08:42.585Z,6.80
2019-01-05T05:11:33.973Z,6.80
2019-01-05T05:14:22.309Z,6.80
2019-01-05T05:17:12.208Z,6.90
2019-01-05T05:20:01.858Z,6.80
2019-01-05T05:23:06.868Z,6.90
2019-01-05T05:26:23.559Z,6.90
2019-01-05T05:29:11.589Z,7.00
2019-01-05T05:32:15.300Z,7.10
2019-01-05T05:35:18.190Z,7.00
2019-01-05T05:38:15.103Z,7.00
2019-01-05T05:41:06.252Z,7.10
2019-01-05T05:44:19.581Z,7.10
2019-01-05T05:47:30.641Z,7.10
2019-01-05T05:50:39.912Z,7.10
2019-01-05T05:53:38.228Z,7.20
2019-01-05T05:56:39.788Z,7.20
2019-01-05T05:59:44.499Z,7.10
2019-01-05T06:02:43.004Z,7.10
2019-01-05T06:05:40.108Z,7.10
2019-01-05T06:08:49.288Z,7.10
2019-01-05T06:11:40.410Z,7.10
2019-01-05T06:14:47.929Z,7.10
2019-01-05T06:17:58.637Z,7.10
2019-01-05T06:20:54.366Z,7.10
2019-01-05T06:24:00.039Z,7.10
2019-01-05T06:27:10.793Z,7.10
2019-01-05T06:30:03.617Z,7.10
2019-01-05T06:32:55.939Z,7.10
2019-01-05T06:36:18.293Z,7.20
2019-01-05T06:39:24.533Z,7.30
2019-01-05T06:42:03.779Z,7.30
2019-01-05T06:44:57.657Z,7.40
2019-01-05T06:47:36.742Z,7.40
2019-01-05T06:50:41.346Z,7.40
2019-01-05T06:53:26.033Z,7.40
2019-01-05T06:56:05.014Z,7.40
2019-01-05T06:59:11.333Z,7.40
2019-01-05T07:02:08.581Z,7.50
2019-01-05T07:05:05.614Z,7.40
2019-01-05T07:07:47.803Z,7.40
2019-01-05T07:10:44.525Z,7.40
2019-01-05T07:13:38.114Z,7.50
2019-01-05T07:16:32.037Z,7.50
2019-01-05T07:19:38.284Z,7.40
2019-01-05T07:22:39.876Z,7.40
2019-01-05T07:25:51.380Z,7.40
2019-01-05T07:29:06.711Z,7.30
2019-01-05T07:32:05.259Z,7.40
2019-01-05T07:35:02.436Z,7.40
2019-01-05T07:38:07.078Z,7.30
2019-01-05T07:40:43.211Z,7.40
2019-01-05T07:43:50.257Z,7.40
2019-01-05T07:46:35.254Z,7.40
2019-01-05T07:49:29.696Z,7.40
2019-01-05T07:52:31.019Z,7.40
2019-01-05T07:55:29.708Z,7.50
2019-01-05T07:58:11.763Z,7.60
2019-01-05T08:01:10.851Z,7.60
2019-01-05T08:03:59.081Z,7.70
2019-01-05T08:07:08.690Z,7.70
2019-01-05T08:09:56.948Z,7.70
2019-01-05T08:13:21.064Z,7.80
2019-01-05T08:16:13.912Z,7.80
2019-01-05T08:19:18.931Z,7.90
2019-01-05T08:21:58.271Z,7.90
2019-01-05T08:24:59.366Z,7.90
2019-01-05T08:27:50.667Z,7.90
2019-01-05T08:30:41.358Z,7.90
2019-01-05T08:33:29.764Z,7.90
2019-01-05T08:36:15.131Z,8.00
2019-01-05T08:39:15.501Z,8.10
2019-01-05T08:42:06.652Z,8.10
2019-01-05T08:44:51.326Z,8.10
2019-01-05T08:47:36.528Z,8.10
2019-01-05T08:50:41.079Z,8.10
2019-01-05T08:53:52.943Z,8.00
2019-01-05T08:57:04.514Z,7.90
2019-01-05T08:59:56.897Z,7.90
2019-01-05T09:03:21.561Z,7.90
2019-01-05T09:06:35.242Z,7.90
2019-01-05T09:09:44.418Z,7.90
2019-01-05T09:12:43.269Z,8.00
2019-01-05T09:15:31.708Z,8.00
2019-01-05T09:18:28.975Z,7.90
2019-01-05T09:21:05.046Z,8.00
2019-01-05T09:23:56.458Z,7.90
2019-01-05T09:27:02.912Z,8.00
2019-01-05T09:29:47.937Z,8.10
2019-01-05T09:32:51.212Z,8.30
2019-01-05T09:35:43.705Z,8.30
2019-01-05T09:38:19.927Z,8.50
2019-01-05T09:41:24.567Z,8.50
2019-01-05T09:44:06.485Z,8.40
2019-01-05T09:47:23.239Z,8.70
2019-01-05T09:50:20.494Z,8.80
2019-01-05T09:53:24.894Z,9.10
2019-01-05T09:56:14.115Z,9.50
2019-01-05T09:58:56.187Z,9.50
2019-01-05T10:02:08.180Z,9.10
2019-01-05T10:04:53.651Z,8.80
2019-01-05T10:08:13.484Z,8.70
2019-01-05T10:10:58.586Z,8.70
2019-01-05T10:13:49.760Z,8.80
2019-01-05T10:17:02.977Z,9.00
2019-01-05T10:19:52.358Z,8.90
2019-01-05T10:22:58.160Z,8.80
2019-01-05T10:26:04.549Z,8.80
2019-01-05T10:29:00.394Z,8.90
2019-01-05T10:32:17.184Z,9.00
2019-01-05T10:35:24.983Z,9.00
2019-01-05T10:38:17.592Z,9.20
2019-01-05T10:40:56.838Z,9.10
2019-01-05T10:44:02.198Z,9.10
2019-01-05T10:46:44.107Z,9.20
2019-01-05T10:49:33.722Z,9.20
2019-01-05T10:52:44.734Z,9.50
2019-01-05T10:55:40.306Z,9.50
2019-01-05T10:58:37.390Z,9.40
2019-01-05T11:01:19.637Z,9.30
2019-01-05T11:04:19.761Z,9.20
2019-01-05T11:07:10.986Z,9.10
2019-01-05T11:10:32.140Z,9.00
2019-01-05T11:13:30.735Z,8.80
2019-01-05T11:16:16.322Z,8.60
2019-01-05T11:19:17.839Z,8.70
2019-01-05T11:22:25.504Z,8.70
2019-01-05T11:25:42.973Z,8.70
2019-01-05T11:28:48.998Z,8.70
2019-01-05T11:31:49.514Z,8.70
2019-01-05T11:34:51.324Z,8.70
2019-01-05T11:37:46.482Z,8.90
2019-01-05T11:40:31.227Z,9.20
2019-01-05T11:43:45.696Z,9.20
2019-01-05T11:46:47.568Z,9.20
2019-01-05T11:49:47.733Z,9.20
2019-01-05T11:52:49.291Z,9.30
2019-01-05T11:55:59.597Z,9.10
2019-01-05T11:59:01.305Z,9.10
2019-01-05T12:01:46.502Z,9.10
2019-01-05T12:04:49.811Z,9.20
2019-01-05T12:08:05.126Z,9.10
2019-01-05T12:10:44.517Z,9.10
2019-01-05T12:13:45.849Z,9.00
2019-01-05T12:16:44.413Z,8.90
2019-01-05T12:19:39.000Z,8.90
2019-01-05T12:22:33.938Z,8.80
2019-01-05T12:25:32.360Z,8.80
2019-01-05T12:28:21.668Z,8.80
2019-01-05T12:31:39.216Z,8.80
2019-01-05T12:34:42.576Z,8.80
2019-01-05T12:37:33.960Z,8.80
2019-01-05T12:40:45.616Z,8.80
2019-01-05T12:43:52.047Z,8.70
2019-01-05T12:46:58.723Z,8.80
2019-01-05T12:49:46.642Z,8.70
2019-01-05T12:52:48.223Z,8.70
2019-01-05T12:55:50.231Z,8.60
2019-01-05T12:58:53.378Z,8.60
2019-01-05T13:02:05.381Z,8.60
2019-01-05T13:05:19.187Z,8.50
2019-01-05T13:08:07.473Z,8.50
2019-01-05T13:11:24.082Z,8.50
2019-01-05T13:14:13.817Z,8.50
2019-01-05T13:17:36.152Z,8.60
2019-01-05T13:20:42.267Z,8.70
2019-01-05T13:23:18.339Z,8.70
2019-01-05T13:26:33.789Z,8.70
2019-01-05T13:29:28.421Z,8.70
2019-01-05T13:32:25.609Z,8.60
2019-01-05T13:35:37.755Z,8.50
2019-01-05T13:38:46.659Z,8.50
2019-01-05T13:41:28.616Z,8.60
2019-01-05T13:44:24.552Z,8.60
2019-01-05T13:47:31.981Z,8.60
2019-01-05T13:50:27.850Z,8.50
2019-01-05T13:53:18.984Z,8.50
2019-01-05T13:56:10.551Z,8.50
2019-01-05T13:58:43.636Z,8.60
2019-01-05T14:01:30.058Z,8.60
2019-01-05T14:04:16.837Z,8.50
2019-01-05T14:07:03.535Z,8.50
2019-01-05T14:09:45.567Z,8.40
2019-01-05T14:12:32.186Z,8.40
2019-01-05T14:15:24.071Z,8.40
2019-01-05T14:17:57.381Z,8.40
2019-01-05T14:20:43.967Z,8.30
2019-01-05T14:23:30.707Z,8.30
2019-01-05T14:26:01.080Z,8.30
2019-01-05T14:28:43.941Z,8.30
2019-01-05T14:31:17.284Z,8.30
2019-01-05T14:33:53.367Z,8.20
2019-01-05T14:36:23.732Z,8.20
2019-01-05T14:38:56.915Z,8.10
2019-01-05T14:41:27.306Z,8.00
2019-01-05T14:43:57.729Z,8.00
2019-01-05T14:46:31.166Z,7.90
2019-01-05T14:49:18.001Z,7.90
2019-01-05T14:51:48.441Z,7.90
2019-01-05T14:54:18.876Z,7.90
2019-01-05T14:56:49.304Z,7.90
2019-01-05T14:59:28.428Z,7.90
2019-01-05T15:02:15.081Z,7.90
2019-01-05T15:05:01.791Z,7.90
2019-01-05T15:07:48.623Z,7.80
2019-01-05T15:10:31.121Z,7.90
2019-01-05T15:13:17.870Z,7.90
2019-01-05T15:15:48.306Z,8.00
2019-01-05T15:18:18.703Z,7.90
2019-01-05T15:20:49.096Z,7.80
2019-01-05T15:23:34.325Z,7.70
2019-01-05T15:26:13.846Z,7.70
2019-01-05T15:28:53.326Z,7.70
2019-01-05T15:31:26.711Z,7.60
2019-01-05T15:34:08.908Z,7.50
2019-01-05T15:36:45.382Z,7.50
2019-01-05T15:39:15.782Z,7.50
2019-01-05T15:41:46.212Z,7.50
2019-01-05T15:44:16.587Z,7.50
2019-01-05T15:46:49.628Z,7.50
2019-01-05T15:49:36.316Z,7.50
2019-01-05T15:52:12.389Z,7.40
2019-01-05T15:54:58.930Z,7.40
2019-01-05T15:57:29.326Z,7.40
2019-01-05T16:00:08.372Z,7.40
2019-01-05T16:02:50.838Z,7.40
2019-01-05T16:05:36.052Z,7.40
2019-01-05T16:08:22.320Z,7.40
2019-01-05T16:10:55.264Z,7.40
2019-01-05T16:13:42.010Z,7.50
2019-01-05T16:16:30.552Z,7.50
2019-01-05T16:19:09.673Z,7.40
2019-01-05T16:21:42.942Z,7.50
2019-01-05T16:24:29.409Z,7.40
2019-01-05T16:27:14.868Z,7.50
2019-01-05T16:30:01.304Z,7.40
2019-01-05T16:32:34.701Z,7.50
2019-01-05T16:35:21.551Z,7.40
2019-01-05T16:37:57.951Z,7.40
2019-01-05T16:40:34.068Z,7.40
2019-01-05T16:43:16.363Z,7.30
2019-01-05T16:45:46.819Z,7.30
2019-01-05T16:48:17.196Z,7.20
2019-01-05T16:50:50.805Z,7.30
2019-01-05T16:53:22.792Z,7.20
2019-01-05T16:55:55.673Z,7.20
2019-01-05T16:58:26.039Z,7.20
2019-01-05T17:01:02.426Z,7.20
2019-01-05T17:03:48.763Z,7.10
2019-01-05T17:06:25.162Z,7.00
2019-01-05T17:08:58.279Z,7.00
2019-01-05T17:11:44.895Z,7.00
2019-01-05T17:14:27.073Z,7.00
2019-01-05T17:17:00.541Z,7.00
2019-01-05T17:19:36.984Z,7.00
2019-01-05T17:22:07.440Z,7.00
2019-01-05T17:24:54.097Z,7.00
2019-01-05T17:27:24.528Z,6.90
2019-01-05T17:30:11.209Z,6.90
2019-01-05T17:32:50.561Z,6.90
2019-01-05T17:35:37.254Z,6.90
2019-01-05T17:38:19.682Z,6.90
2019-01-05T17:40:50.416Z,6.90
2019-01-05T17:43:32.875Z,6.90
2019-01-05T17:46:15.171Z,6.90
2019-01-05T17:48:48.261Z,6.80
2019-01-05T17:51:18.679Z,6.70
2019-01-05T17:54:04.140Z,6.60
2019-01-05T17:56:40.436Z,6.50
2019-01-05T17:59:25.609Z,6.40
2019-01-05T18:02:07.964Z,6.30
2019-01-05T18:04:47.144Z,6.30
2019-01-05T18:07:20.183Z,6.30
2019-01-05T18:10:06.818Z,6.30
2019-01-05T18:12:52.435Z,6.30
2019-01-05T18:15:22.911Z,6.30
2019-01-05T18:18:05.154Z,6.20
2019-01-05T18:20:38.563Z,6.20
2019-01-05T18:23:24.578Z,6.20
2019-01-05T18:26:11.514Z,6.10
2019-01-05T18:28:44.880Z,6.10
2019-01-05T18:31:18.057Z,6.00
2019-01-05T18:34:04.570Z,6.10
2019-01-05T18:36:34.996Z,6.00
2019-01-05T18:39:07.223Z,6.00
2019-01-05T18:41:46.635Z,6.00
2019-01-05T18:44:22.847Z,5.90
2019-01-05T18:46:56.045Z,6.00
2019-01-05T18:49:29.219Z,5.90
2019-01-05T18:52:02.632Z,5.80
2019-01-05T18:54:49.121Z,5.80
2019-01-05T18:57:25.557Z,5.80
2019-01-05T18:59:58.631Z,5.90
2019-01-05T19:02:47.080Z,5.80
2019-01-05T19:05:33.856Z,5.90
2019-01-05T19:08:23.670Z,6.00
2019-01-05T19:10:54.117Z,6.00
2019-01-05T19:13:40.570Z,6.00
2019-01-05T19:16:13.889Z,5.90
2019-01-05T19:19:02.601Z,6.10
2019-01-05T19:21:38.958Z,6.00
2019-01-05T19:24:18.735Z,5.90
2019-01-05T19:26:52.169Z,5.80
2019-01-05T19:29:28.338Z,5.70
2019-01-05T19:32:10.590Z,5.70
2019-01-05T19:34:43.747Z,5.80
2019-01-05T19:37:26.394Z,5.60
2019-01-05T19:39:59.833Z,5.60
2019-01-05T19:42:36.125Z,5.50
2019-01-05T19:45:08.322Z,5.30
2019-01-05T19:47:38.728Z,5.20
2019-01-05T19:50:09.111Z,5.20
2019-01-05T19:52:55.874Z,5.10
2019-01-05T19:55:38.341Z,5.10
2019-01-05T19:58:24.560Z,5.10
2019-01-05T20:00:55.233Z,5.00
2019-01-05T20:03:28.411Z,5.00
2019-01-05T20:05:58.870Z,4.90
2019-01-05T20:08:45.641Z,4.90
2019-01-05T20:11:34.505Z,4.90
2019-01-05T20:14:20.827Z,4.90
2019-01-05T20:17:09.188Z,4.90
2019-01-05T20:19:39.662Z,4.80
2019-01-05T20:22:10.087Z,4.80
2019-01-05T20:24:40.457Z,4.60
2019-01-05T20:27:22.649Z,4.60
2019-01-05T20:30:09.044Z,4.60
2019-01-05T20:32:45.377Z,4.50
2019-01-05T20:35:31.472Z,4.60
2019-01-05T20:38:18.143Z,4.50
2019-01-05T20:41:06.593Z,4.50
2019-01-05T20:43:49.155Z,4.40
2019-01-05T20:46:35.752Z,4.40
2019-01-05T20:49:06.204Z,4.40
2019-01-05T20:51:54.411Z,4.40
2019-01-05T20:54:27.684Z,4.30
2019-01-05T20:57:13.786Z,4.30
2019-01-05T20:59:56.257Z,4.30
2019-01-05T21:02:44.777Z,4.30
2019-01-05T21:05:28.046Z,4.30
2019-01-05T21:07:59.252Z,4.20
2019-01-05T21:10:48.091Z,4.20
2019-01-05T21:13:34.560Z,4.20
2019-01-05T21:16:20.955Z,4.20
2019-01-05T21:18:51.350Z,4.10
2019-01-05T21:21:37.773Z,4.10
2019-01-05T21:24:08.437Z,4.10
2019-01-05T21:26:38.839Z,4.10
2019-01-05T21:29:24.093Z,4.10
2019-01-05T21:32:10.670Z,4.10
2019-01-05T21:34:46.740Z,4.10
2019-01-05T21:37:17.164Z,4.10
2019-01-05T21:40:03.966Z,4.00
2019-01-05T21:42:49.517Z,4.00
2019-01-05T21:45:22.927Z,3.90
2019-01-05T21:47:53.342Z,3.90
2019-01-05T21:50:24.097Z,3.90
2019-01-05T21:53:10.570Z,3.80
2019-01-05T21:55:59.097Z,3.80
2019-01-05T21:58:38.220Z,3.80
2019-01-05T22:01:08.617Z,3.80
2019-01-05T22:03:54.826Z,3.80
2019-01-05T22:06:37.259Z,3.80
2019-01-05T22:09:09.170Z,3.90
2019-01-05T22:11:45.489Z,4.00
2019-01-05T22:14:15.914Z,4.00
2019-01-05T22:17:04.167Z,4.20
2019-01-05T22:19:50.933Z,4.20
2019-01-05T22:22:21.413Z,4.30
2019-01-05T22:24:57.837Z,4.30
2019-01-05T22:27:46.292Z,4.30
2019-01-05T22:30:25.665Z,4.30
2019-01-05T22:33:04.799Z,4.40
2019-01-05T22:35:44.101Z,4.30
2019-01-05T22:38:30.724Z,4.40
2019-01-05T22:41:19.213Z,4.40
2019-01-05T22:44:05.603Z,4.40
2019-01-05T22:46:48.032Z,4.50
2019-01-05T22:49:24.494Z,4.50
2019-01-05T22:52:10.898Z,4.50
2019-01-05T22:54:53.325Z,4.50
2019-01-05T22:57:26.349Z,4.50
2019-01-05T23:00:14.641Z,4.50
2019-01-05T23:02:47.926Z,4.40
2019-01-05T23:05:21.244Z,4.40
2019-01-05T23:08:07.609Z,4.40
2019-01-05T23:10:46.990Z,4.40
2019-01-05T23:13:33.463Z,4.50
2019-01-05T23:16:20.206Z,4.40
2019-01-05T23:18:59.662Z,4.30
2019-01-05T23:21:32.989Z,4.30
2019-01-05T23:24:18.203Z,4.30
2019-01-05T23:27:04.870Z,4.30
2019-01-05T23:29:51.514Z,4.30
2019-01-05T23:32:21.926Z,4.20
2019-01-05T23:34:52.322Z,4.20
2019-01-05T23:37:31.756Z,4.30
2019-01-05T23:40:02.138Z,4.30
2019-01-05T23:42:50.301Z,4.20
2019-01-05T23:45:32.499Z,4.20
2019-01-05T23:48:03.473Z,4.20
2019-01-05T23:50:36.803Z,4.20
2019-01-05T23:53:23.321Z,4.20
2019-01-05T23:55:56.513Z,4.20
2019-01-05T23:58:43.379Z,4.20
